Ikke nødvendig med spesiell oppmerksomhet.   -   Ingen advarsler for øyeblikket

METAR Rapporter

 

ENZV - Stavanger
Oppdatert: 18/08/2018 10:20
Light drizzle, mostly cloudy
Light drizzle, mostly cloudy
 Vind fra SSV
Vind: SSV 20 km/h
Temperatur: 16°C
Duggpunkt: 14°C
Fuktighet: 88%
Barometer: 1007 hPa
Oversikt: Yr
Skyet: hovedsaklig skyet
Sikt: 10 km
2018/08/18 08:20 ENZV 180820Z 20011KT 9999 -DZ FEW015 SCT025 BKN055 16/14 Q1007 TEMPO 4000 RADZ BR BKN014
ENBR - Bergen
Oppdatert: 18/08/2018 10:20
Light rain, showers, mostly cloudy
Light rain, showers, mostly cloudy
 Vind fra SV
Vind: SV 24 km/h
Temperatur: 15°C
Duggpunkt: 13°C
Fuktighet: 88%
Barometer: 1004 hPa
Oversikt: Light rain, showers
Skyet: hovedsaklig skyet
Sikt: 10 km
2018/08/18 08:20 ENBR 180820Z 23013KT 9999 8000S -SHRA FEW009 SCT015 BKN020 15/13 Q1004 TEMPO 4000 SHRA BKN012 RMK WIND 1200FT 22018KT
 
ENHD - Haugesund
Oppdatert: 18/08/2018 10:20
Light rain, mostly cloudy
Light rain, mostly cloudy
 Vind fra SSV
Vind: SSV 37 km/h
Temperatur: 16°C
Duggpunkt: 13°C
Fuktighet: 83%
Barometer: 1006 hPa
Oversikt: lett regn
Skyet: hovedsaklig skyet
Sikt: 10 km
2018/08/18 08:20 ENHD 180820Z 21020KT 9999 -RA SCT015 BKN024 BKN038 16/13 Q1006 RERA
ENCN - Kristiansand
Oppdatert: 18/08/2018 10:20
Light rain, showers, drizzle, mostly cloudy
Light rain, showers, drizzle, mostly cloudy
 Vind fra SSV
Vind: SSV 31 km/h
Temperatur: 17°C
Duggpunkt: 16°C
Fuktighet: 94%
Barometer: 1010 hPa
Oversikt: Light rain, showers, drizzle
Skyet: hovedsaklig skyet
Sikt: 10 km
2018/08/18 08:20 ENCN 180820Z 21017KT 9999 -SHRADZ BKN013 17/16 Q1010
 
ENBO - Bodø
Oppdatert: 18/08/2018 10:20
hovedsaklig skyet
hovedsaklig skyet
 Vind fra Ø
Vind: Ø 15 km/h
Temperatur: 15°C
Duggpunkt: 10°C
Fuktighet: 72%
Barometer: 1001 hPa
Skyet: hovedsaklig skyet
Sikt: 10 km
2018/08/18 08:20 ENBO 180820Z 09008KT 9999 FEW025 BKN050 15/10 Q1001 NOSIG
ENKR - Kirkenes
Oppdatert: 18/08/2018 10:20
delvis skyet
delvis skyet
 Vind fra VSV
Vind: VSV 28 km/h
Temperatur: 16°C
Duggpunkt: 10°C
Fuktighet: 68%
Barometer: 1001 hPa
Skyet: delvis skyet
Sikt: 10 km
2018/08/18 08:20 ENKR 180820Z 25015KT 9999 SCT029TCU 16/10 Q1001 RMK WIND 731FT 25026KT
 
ENVA - Trondheim
Oppdatert: 18/08/2018 10:20
Light rain, mostly cloudy
Light rain, mostly cloudy
 Vind fra varies
Vind: varies 6 km/h
Temperatur: 14°C
Duggpunkt: 9°C
Fuktighet: 72%
Barometer: 1001 hPa
Oversikt: lett regn
Skyet: hovedsaklig skyet
Sikt: 10 km
2018/08/18 08:20 ENVA 180820Z VRB03KT 9999 -RA FEW025 BKN064 14/09 Q1001 NOSIG RMK WIND 670FT 15008KT
ENGM - Oslo
Oppdatert: 18/08/2018 10:20
hovedsaklig skyet
hovedsaklig skyet
 Vind fra S
Vind: S 26 km/h
Temperatur: 14°C
Duggpunkt: 11°C
Fuktighet: 82%
Barometer: 1009 hPa
Skyet: hovedsaklig skyet
Sikt: 10 km
2018/08/18 08:20 ENGM 180820Z 19014KT 9999 BKN018 14/11 Q1009 NOSIG